sensor_id;sensor_type;location;lat;lon;timestamp;P1;durP1;ratioP1;P2;durP2;ratioP2
64214;SDS011;54441;52.110;5.252;2022-07-17T00:00:47;3.6;;;2.31;;
64214;SDS011;54441;52.110;5.252;2022-07-17T00:04:22;2.9;;;2.31;;
64214;SDS011;54441;52.110;5.252;2022-07-17T00:06:09;5.6;;;2.8;;
64214;SDS011;54441;52.110;5.252;2022-07-17T00:07:55;5.6;;;2.8;;
64214;SDS011;54441;52.110;5.252;2022-07-17T00:09:42;6.5;;;2.9;;
64214;SDS011;54441;52.110;5.252;2022-07-17T00:11:29;4.5;;;2.9;;
64214;SDS011;54441;52.110;5.252;2022-07-17T00:15:04;4.5;;;2.21;;
64214;SDS011;54441;52.110;5.252;2022-07-17T00:16:53;3.2;;;2.31;;
64214;SDS011;54441;52.110;5.252;2022-07-17T00:18:39;3.1;;;2.31;;
64214;SDS011;54441;52.110;5.252;2022-07-17T00:20:27;7.5;;;2.4;;
64214;SDS011;54441;52.110;5.252;2022-07-17T00:24:01;4.3;;;2.6;;
64214;SDS011;54441;52.110;5.252;2022-07-17T00:27:35;4.2;;;2.6;;
64214;SDS011;54441;52.110;5.252;2022-07-17T00:29:22;3.2;;;2.21;;
64214;SDS011;54441;52.110;5.252;2022-07-17T00:31:09;3.2;;;2.21;;
64214;SDS011;54441;52.110;5.252;2022-07-17T00:32:57;5.11;;;2.5;;
64214;SDS011;54441;52.110;5.252;2022-07-17T00:34:44;4.61;;;2.21;;
64214;SDS011;54441;52.110;5.252;2022-07-17T00:36:31;2.31;;;2.1;;
64214;SDS011;54441;52.110;5.252;2022-07-17T00:40:05;4.91;;;2.31;;
64214;SDS011;54441;52.110;5.252;2022-07-17T00:41:52;4.8;;;2.31;;
64214;SDS011;54441;52.110;5.252;2022-07-17T00:43:39;4.3;;;2.31;;
64214;SDS011;54441;52.110;5.252;2022-07-17T00:45:26;3.3;;;2.1;;
64214;SDS011;54441;52.110;5.252;2022-07-17T00:47:13;6.7;;;2.31;;
64214;SDS011;54441;52.110;5.252;2022-07-17T00:49:02;3.7;;;2.1;;
64214;SDS011;54441;52.110;5.252;2022-07-17T00:52:37;6.1;;;2.7;;
64214;SDS011;54441;52.110;5.252;2022-07-17T00:54:25;6.1;;;2.6;;
64214;SDS011;54441;52.110;5.252;2022-07-17T00:56:12;4.8;;;2.0;;
64214;SDS011;54441;52.110;5.252;2022-07-17T00:58:04;4.91;;;2.31;;
64214;SDS011;54441;52.110;5.252;2022-07-17T00:59:52;3.2;;;2.31;;
64214;SDS011;54441;52.110;5.252;2022-07-17T01:01:39;6.0;;;2.31;;
64214;SDS011;54441;52.110;5.252;2022-07-17T01:05:14;3.6;;;2.31;;
64214;SDS011;54441;52.110;5.252;2022-07-17T01:07:01;3.1;;;2.4;;
64214;SDS011;54441;52.110;5.252;2022-07-17T01:08:51;4.3;;;2.4;;
64214;SDS011;54441;52.110;5.252;2022-07-17T01:10:38;3.4;;;2.1;;
64214;SDS011;54441;52.110;5.252;2022-07-17T01:12:27;3.5;;;1.8;;
64214;SDS011;54441;52.110;5.252;2022-07-17T01:14:14;2.7;;;1.9;;
64214;SDS011;54441;52.110;5.252;2022-07-17T01:17:48;4.0;;;1.7;;
64214;SDS011;54441;52.110;5.252;2022-07-17T01:19:35;5.9;;;2.21;;
64214;SDS011;54441;52.110;5.252;2022-07-17T01:21:22;3.8;;;2.0;;
64214;SDS011;54441;52.110;5.252;2022-07-17T01:23:08;3.3;;;2.4;;
64214;SDS011;54441;52.110;5.252;2022-07-17T01:24:57;10.6;;;2.21;;
64214;SDS011;54441;52.110;5.252;2022-07-17T01:26:43;3.6;;;2.4;;
64214;SDS011;54441;52.110;5.252;2022-07-17T01:30:19;2.8;;;2.21;;
64214;SDS011;54441;52.110;5.252;2022-07-17T01:32:06;4.61;;;2.21;;
64214;SDS011;54441;52.110;5.252;2022-07-17T01:33:54;3.2;;;2.0;;
64214;SDS011;54441;52.110;5.252;2022-07-17T01:35:41;2.6;;;2.0;;
64214;SDS011;54441;52.110;5.252;2022-07-17T01:37:28;4.1;;;2.21;;
64214;SDS011;54441;52.110;5.252;2022-07-17T01:39:15;3.6;;;2.31;;
64214;SDS011;54441;52.110;5.252;2022-07-17T01:42:49;4.2;;;2.4;;
64214;SDS011;54441;52.110;5.252;2022-07-17T01:44:36;3.5;;;1.8;;
64214;SDS011;54441;52.110;5.252;2022-07-17T01:46:24;2.5;;;2.0;;
64214;SDS011;54441;52.110;5.252;2022-07-17T01:48:11;4.0;;;2.6;;
64214;SDS011;54441;52.110;5.252;2022-07-17T01:49:58;3.0;;;2.31;;
64214;SDS011;54441;52.110;5.252;2022-07-17T01:51:45;5.2;;;2.4;;
64214;SDS011;54441;52.110;5.252;2022-07-17T01:55:19;5.6;;;2.8;;
64214;SDS011;54441;52.110;5.252;2022-07-17T01:57:06;3.5;;;2.21;;
64214;SDS011;54441;52.110;5.252;2022-07-17T01:58:54;6.9;;;2.4;;
64214;SDS011;54441;52.110;5.252;2022-07-17T02:00:42;3.1;;;2.6;;
64214;SDS011;54441;52.110;5.252;2022-07-17T02:02:29;5.5;;;2.4;;
64214;SDS011;54441;52.110;5.252;2022-07-17T02:04:16;4.0;;;2.5;;
64214;SDS011;54441;52.110;5.252;2022-07-17T02:07:50;3.7;;;2.21;;
64214;SDS011;54441;52.110;5.252;2022-07-17T02:09:37;4.2;;;2.5;;
64214;SDS011;54441;52.110;5.252;2022-07-17T02:11:25;3.5;;;2.5;;
64214;SDS011;54441;52.110;5.252;2022-07-17T02:13:12;5.2;;;2.4;;
64214;SDS011;54441;52.110;5.252;2022-07-17T02:14:59;4.41;;;2.1;;
64214;SDS011;54441;52.110;5.252;2022-07-17T02:18:32;4.2;;;2.4;;
64214;SDS011;54441;52.110;5.252;2022-07-17T02:20:20;4.1;;;2.1;;
64214;SDS011;54441;52.110;5.252;2022-07-17T02:22:08;3.7;;;2.6;;
64214;SDS011;54441;52.110;5.252;2022-07-17T02:23:55;3.7;;;2.1;;
64214;SDS011;54441;52.110;5.252;2022-07-17T02:25:42;4.1;;;2.4;;
64214;SDS011;54441;52.110;5.252;2022-07-17T02:27:30;5.3;;;2.0;;
64214;SDS011;54441;52.110;5.252;2022-07-17T02:31:04;4.61;;;2.21;;
64214;SDS011;54441;52.110;5.252;2022-07-17T02:32:51;3.3;;;2.21;;
64214;SDS011;54441;52.110;5.252;2022-07-17T02:34:38;2.21;;;2.0;;
64214;SDS011;54441;52.110;5.252;2022-07-17T02:36:24;2.9;;;2.4;;
64214;SDS011;54441;52.110;5.252;2022-07-17T02:38:11;3.6;;;2.4;;
64214;SDS011;54441;52.110;5.252;2022-07-17T02:39:58;2.8;;;2.21;;
64214;SDS011;54441;52.110;5.252;2022-07-17T02:43:33;5.0;;;2.5;;
64214;SDS011;54441;52.110;5.252;2022-07-17T02:45:24;3.7;;;2.31;;
64214;SDS011;54441;52.110;5.252;2022-07-17T02:47:11;4.8;;;2.1;;
64214;SDS011;54441;52.110;5.252;2022-07-17T02:48:58;3.0;;;2.21;;
64214;SDS011;54441;52.110;5.252;2022-07-17T02:50:45;3.3;;;2.1;;
64214;SDS011;54441;52.110;5.252;2022-07-17T02:52:31;3.3;;;2.1;;
64214;SDS011;54441;52.110;5.252;2022-07-17T02:56:06;3.1;;;2.31;;
64214;SDS011;54441;52.110;5.252;2022-07-17T02:57:53;4.41;;;2.6;;
64214;SDS011;54441;52.110;5.252;2022-07-17T02:59:40;3.7;;;2.5;;
64214;SDS011;54441;52.110;5.252;2022-07-17T03:01:28;4.2;;;2.4;;
64214;SDS011;54441;52.110;5.252;2022-07-17T03:03:15;4.1;;;2.4;;
64214;SDS011;54441;52.110;5.252;2022-07-17T03:05:02;4.2;;;2.5;;
64214;SDS011;54441;52.110;5.252;2022-07-17T03:08:36;2.9;;;2.31;;
64214;SDS011;54441;52.110;5.252;2022-07-17T03:10:22;3.8;;;2.0;;
64214;SDS011;54441;52.110;5.252;2022-07-17T03:12:09;5.11;;;2.5;;
64214;SDS011;54441;52.110;5.252;2022-07-17T03:13:56;4.5;;;2.7;;
64214;SDS011;54441;52.110;5.252;2022-07-17T03:15:43;4.5;;;2.7;;
64214;SDS011;54441;52.110;5.252;2022-07-17T03:17:30;4.2;;;2.9;;
64214;SDS011;54441;52.110;5.252;2022-07-17T03:21:04;3.8;;;2.7;;
64214;SDS011;54441;52.110;5.252;2022-07-17T03:22:51;5.3;;;2.5;;
64214;SDS011;54441;52.110;5.252;2022-07-17T03:24:38;3.3;;;2.4;;
64214;SDS011;54441;52.110;5.252;2022-07-17T03:26:25;3.0;;;2.4;;
64214;SDS011;54441;52.110;5.252;2022-07-17T03:28:12;9.31;;;2.5;;
64214;SDS011;54441;52.110;5.252;2022-07-17T03:29:59;2.8;;;1.9;;
64214;SDS011;54441;52.110;5.252;2022-07-17T03:33:34;4.7;;;2.7;;
64214;SDS011;54441;52.110;5.252;2022-07-17T03:35:21;4.41;;;2.31;;
64214;SDS011;54441;52.110;5.252;2022-07-17T03:38:55;3.8;;;2.4;;
64214;SDS011;54441;52.110;5.252;2022-07-17T03:40:42;5.4;;;2.5;;
64214;SDS011;54441;52.110;5.252;2022-07-17T03:44:15;3.4;;;2.4;;
64214;SDS011;54441;52.110;5.252;2022-07-17T03:46:02;2.7;;;2.21;;
64214;SDS011;54441;52.110;5.252;2022-07-17T03:47:49;6.6;;;2.7;;
64214;SDS011;54441;52.110;5.252;2022-07-17T03:49:35;3.4;;;2.21;;
64214;SDS011;54441;52.110;5.252;2022-07-17T03:51:23;4.0;;;2.31;;
64214;SDS011;54441;52.110;5.252;2022-07-17T03:53:10;5.11;;;2.9;;
64214;SDS011;54441;52.110;5.252;2022-07-17T03:56:44;4.5;;;2.4;;
64214;SDS011;54441;52.110;5.252;2022-07-17T03:58:30;2.8;;;1.9;;
64214;SDS011;54441;52.110;5.252;2022-07-17T04:00:17;3.3;;;2.8;;
64214;SDS011;54441;52.110;5.252;2022-07-17T04:02:04;3.8;;;2.5;;
64214;SDS011;54441;52.110;5.252;2022-07-17T04:03:52;3.3;;;2.21;;
64214;SDS011;54441;52.110;5.252;2022-07-17T04:05:39;2.9;;;2.31;;
64214;SDS011;54441;52.110;5.252;2022-07-17T04:09:14;3.6;;;2.4;;
64214;SDS011;54441;52.110;5.252;2022-07-17T04:11:01;2.5;;;2.0;;
64214;SDS011;54441;52.110;5.252;2022-07-17T04:12:48;3.0;;;2.21;;
64214;SDS011;54441;52.110;5.252;2022-07-17T04:14:35;4.41;;;2.21;;
64214;SDS011;54441;52.110;5.252;2022-07-17T04:16:23;3.6;;;2.4;;
64214;SDS011;54441;52.110;5.252;2022-07-17T04:18:09;2.9;;;2.5;;
64214;SDS011;54441;52.110;5.252;2022-07-17T04:21:42;4.0;;;2.6;;
64214;SDS011;54441;52.110;5.252;2022-07-17T04:23:28;3.8;;;2.31;;
64214;SDS011;54441;52.110;5.252;2022-07-17T04:25:16;3.9;;;2.31;;
64214;SDS011;54441;52.110;5.252;2022-07-17T04:27:03;2.9;;;2.1;;
64214;SDS011;54441;52.110;5.252;2022-07-17T04:28:50;4.41;;;2.4;;
64214;SDS011;54441;52.110;5.252;2022-07-17T04:32:24;2.31;;;2.1;;
64214;SDS011;54441;52.110;5.252;2022-07-17T04:34:11;3.0;;;2.4;;
64214;SDS011;54441;52.110;5.252;2022-07-17T04:35:58;4.1;;;2.4;;
64214;SDS011;54441;52.110;5.252;2022-07-17T04:37:45;3.5;;;2.4;;
64214;SDS011;54441;52.110;5.252;2022-07-17T04:39:32;4.1;;;2.8;;
64214;SDS011;54441;52.110;5.252;2022-07-17T04:41:19;4.0;;;2.8;;
64214;SDS011;54441;52.110;5.252;2022-07-17T04:44:54;3.1;;;2.1;;
64214;SDS011;54441;52.110;5.252;2022-07-17T04:46:40;6.2;;;2.7;;
64214;SDS011;54441;52.110;5.252;2022-07-17T04:48:27;2.6;;;2.4;;
64214;SDS011;54441;52.110;5.252;2022-07-17T04:50:14;3.9;;;2.5;;
64214;SDS011;54441;52.110;5.252;2022-07-17T04:52:01;5.0;;;3.1;;
64214;SDS011;54441;52.110;5.252;2022-07-17T04:53:48;3.6;;;2.5;;
64214;SDS011;54441;52.110;5.252;2022-07-17T04:57:22;6.4;;;3.3;;
64214;SDS011;54441;52.110;5.252;2022-07-17T04:59:09;6.2;;;3.5;;
64214;SDS011;54441;52.110;5.252;2022-07-17T05:00:56;7.5;;;4.0;;
64214;SDS011;54441;52.110;5.252;2022-07-17T05:02:43;4.8;;;3.6;;
64214;SDS011;54441;52.110;5.252;2022-07-17T05:04:29;5.2;;;4.1;;
64214;SDS011;54441;52.110;5.252;2022-07-17T05:06:17;5.9;;;4.0;;
64214;SDS011;54441;52.110;5.252;2022-07-17T05:09:50;8.31;;;5.3;;
64214;SDS011;54441;52.110;5.252;2022-07-17T05:11:37;5.7;;;4.41;;
64214;SDS011;54441;52.110;5.252;2022-07-17T05:15:12;6.8;;;4.61;;
64214;SDS011;54441;52.110;5.252;2022-07-17T05:16:59;6.2;;;4.1;;
64214;SDS011;54441;52.110;5.252;2022-07-17T05:18:46;6.9;;;4.2;;
64214;SDS011;54441;52.110;5.252;2022-07-17T05:22:21;8.81;;;4.1;;
64214;SDS011;54441;52.110;5.252;2022-07-17T05:24:08;8.81;;;4.61;;
64214;SDS011;54441;52.110;5.252;2022-07-17T05:25:55;9.0;;;5.8;;
64214;SDS011;54441;52.110;5.252;2022-07-17T05:27:42;7.2;;;5.6;;
64214;SDS011;54441;52.110;5.252;2022-07-17T05:29:29;11.5;;;5.6;;
64214;SDS011;54441;52.110;5.252;2022-07-17T05:33:02;9.71;;;5.9;;
64214;SDS011;54441;52.110;5.252;2022-07-17T05:34:49;8.4;;;5.2;;
64214;SDS011;54441;52.110;5.252;2022-07-17T05:36:36;8.1;;;5.3;;
64214;SDS011;54441;52.110;5.252;2022-07-17T05:38:23;8.6;;;3.9;;
64214;SDS011;54441;52.110;5.252;2022-07-17T05:40:10;8.2;;;4.41;;
64214;SDS011;54441;52.110;5.252;2022-07-17T05:41:57;7.8;;;3.4;;
64214;SDS011;54441;52.110;5.252;2022-07-17T05:45:31;5.11;;;3.2;;
64214;SDS011;54441;52.110;5.252;2022-07-17T05:47:17;8.2;;;4.0;;
64214;SDS011;54441;52.110;5.252;2022-07-17T05:49:04;7.7;;;3.6;;
64214;SDS011;54441;52.110;5.252;2022-07-17T05:50:50;5.0;;;3.4;;
64214;SDS011;54441;52.110;5.252;2022-07-17T05:52:37;6.0;;;2.8;;
64214;SDS011;54441;52.110;5.252;2022-07-17T05:54:24;6.9;;;3.1;;
64214;SDS011;54441;52.110;5.252;2022-07-17T05:57:58;6.5;;;3.5;;
64214;SDS011;54441;52.110;5.252;2022-07-17T05:59:45;7.4;;;4.5;;
64214;SDS011;54441;52.110;5.252;2022-07-17T06:01:33;7.4;;;4.1;;
64214;SDS011;54441;52.110;5.252;2022-07-17T06:03:21;6.7;;;3.3;;
64214;SDS011;54441;52.110;5.252;2022-07-17T06:05:08;6.8;;;3.0;;
64214;SDS011;54441;52.110;5.252;2022-07-17T06:06:56;6.4;;;2.9;;
64214;SDS011;54441;52.110;5.252;2022-07-17T06:10:30;5.8;;;3.6;;
64214;SDS011;54441;52.110;5.252;2022-07-17T06:12:18;5.0;;;2.6;;
64214;SDS011;54441;52.110;5.252;2022-07-17T06:14:04;5.6;;;2.4;;
64214;SDS011;54441;52.110;5.252;2022-07-17T06:15:51;8.71;;;3.2;;
64214;SDS011;54441;52.110;5.252;2022-07-17T06:17:39;7.7;;;2.5;;
64214;SDS011;54441;52.110;5.252;2022-07-17T06:19:26;7.7;;;2.31;;
64214;SDS011;54441;52.110;5.252;2022-07-17T06:23:00;7.0;;;2.5;;
64214;SDS011;54441;52.110;5.252;2022-07-17T06:24:47;5.3;;;1.9;;
64214;SDS011;54441;52.110;5.252;2022-07-17T06:26:34;7.2;;;2.8;;
64214;SDS011;54441;52.110;5.252;2022-07-17T06:28:21;2.7;;;1.6;;
64214;SDS011;54441;52.110;5.252;2022-07-17T06:30:08;4.8;;;2.1;;
64214;SDS011;54441;52.110;5.252;2022-07-17T06:33:44;6.7;;;2.6;;
64214;SDS011;54441;52.110;5.252;2022-07-17T06:35:33;7.9;;;2.21;;
64214;SDS011;54441;52.110;5.252;2022-07-17T06:37:20;7.8;;;2.21;;
64214;SDS011;54441;52.110;5.252;2022-07-17T06:39:07;4.8;;;2.0;;
64214;SDS011;54441;52.110;5.252;2022-07-17T06:40:53;3.8;;;2.1;;
64214;SDS011;54441;52.110;5.252;2022-07-17T06:42:40;6.4;;;2.21;;
64214;SDS011;54441;52.110;5.252;2022-07-17T06:46:15;6.1;;;1.7;;
64214;SDS011;54441;52.110;5.252;2022-07-17T06:48:02;5.11;;;2.31;;
64214;SDS011;54441;52.110;5.252;2022-07-17T06:49:49;4.8;;;1.8;;
64214;SDS011;54441;52.110;5.252;2022-07-17T06:51:35;3.7;;;1.7;;
64214;SDS011;54441;52.110;5.252;2022-07-17T06:53:22;6.8;;;2.1;;
64214;SDS011;54441;52.110;5.252;2022-07-17T06:55:09;3.3;;;1.5;;
64214;SDS011;54441;52.110;5.252;2022-07-17T06:58:43;3.9;;;1.7;;
64214;SDS011;54441;52.110;5.252;2022-07-17T07:00:30;3.6;;;1.6;;
64214;SDS011;54441;52.110;5.252;2022-07-17T07:02:17;6.5;;;1.7;;
64214;SDS011;54441;52.110;5.252;2022-07-17T07:04:03;4.61;;;1.5;;
64214;SDS011;54441;52.110;5.252;2022-07-17T07:05:50;5.2;;;1.3;;
64214;SDS011;54441;52.110;5.252;2022-07-17T07:07:38;6.8;;;1.6;;
64214;SDS011;54441;52.110;5.252;2022-07-17T07:11:12;5.0;;;1.8;;
64214;SDS011;54441;52.110;5.252;2022-07-17T07:12:58;6.6;;;2.0;;
64214;SDS011;54441;52.110;5.252;2022-07-17T07:14:45;4.7;;;1.6;;
64214;SDS011;54441;52.110;5.252;2022-07-17T07:16:33;4.7;;;1.6;;
64214;SDS011;54441;52.110;5.252;2022-07-17T07:18:20;4.3;;;1.6;;
64214;SDS011;54441;52.110;5.252;2022-07-17T07:20:08;5.3;;;1.7;;
64214;SDS011;54441;52.110;5.252;2022-07-17T07:23:44;4.61;;;1.8;;
64214;SDS011;54441;52.110;5.252;2022-07-17T07:25:31;6.3;;;1.8;;
64214;SDS011;54441;52.110;5.252;2022-07-17T07:27:17;4.8;;;1.3;;
64214;SDS011;54441;52.110;5.252;2022-07-17T07:29:04;3.7;;;1.6;;
64214;SDS011;54441;52.110;5.252;2022-07-17T07:30:52;7.9;;;2.5;;
64214;SDS011;54441;52.110;5.252;2022-07-17T07:32:39;8.2;;;2.1;;
64214;SDS011;54441;52.110;5.252;2022-07-17T07:36:13;3.9;;;1.7;;
64214;SDS011;54441;52.110;5.252;2022-07-17T07:38:01;3.7;;;1.8;;
64214;SDS011;54441;52.110;5.252;2022-07-17T07:39:48;3.5;;;1.7;;
64214;SDS011;54441;52.110;5.252;2022-07-17T07:41:36;3.2;;;1.4;;
64214;SDS011;54441;52.110;5.252;2022-07-17T07:43:23;5.8;;;2.21;;
64214;SDS011;54441;52.110;5.252;2022-07-17T07:46:57;6.8;;;1.4;;
64214;SDS011;54441;52.110;5.252;2022-07-17T07:48:45;3.3;;;1.3;;
64214;SDS011;54441;52.110;5.252;2022-07-17T07:50:32;1.7;;;1.2;;
64214;SDS011;54441;52.110;5.252;2022-07-17T07:52:19;6.0;;;1.8;;
64214;SDS011;54441;52.110;5.252;2022-07-17T07:54:06;4.61;;;1.5;;
64214;SDS011;54441;52.110;5.252;2022-07-17T07:55:53;4.5;;;1.5;;
64214;SDS011;54441;52.110;5.252;2022-07-17T07:59:28;3.6;;;1.3;;
64214;SDS011;54441;52.110;5.252;2022-07-17T08:01:15;4.7;;;1.4;;
64214;SDS011;54441;52.110;5.252;2022-07-17T08:03:02;3.8;;;1.7;;
64214;SDS011;54441;52.110;5.252;2022-07-17T08:04:50;4.3;;;1.4;;
64214;SDS011;54441;52.110;5.252;2022-07-17T08:06:38;3.7;;;1.5;;
64214;SDS011;54441;52.110;5.252;2022-07-17T08:08:24;4.3;;;1.3;;
64214;SDS011;54441;52.110;5.252;2022-07-17T08:11:59;5.3;;;1.7;;
64214;SDS011;54441;52.110;5.252;2022-07-17T08:13:46;4.3;;;1.8;;
64214;SDS011;54441;52.110;5.252;2022-07-17T08:15:33;6.0;;;1.8;;
64214;SDS011;54441;52.110;5.252;2022-07-17T08:17:20;3.9;;;1.6;;
64214;SDS011;54441;52.110;5.252;2022-07-17T08:19:08;5.9;;;1.4;;
64214;SDS011;54441;52.110;5.252;2022-07-17T08:20:54;5.9;;;1.4;;
64214;SDS011;54441;52.110;5.252;2022-07-17T08:24:32;1.7;;;1.2;;
64214;SDS011;54441;52.110;5.252;2022-07-17T08:26:18;3.1;;;1.11;;
64214;SDS011;54441;52.110;5.252;2022-07-17T08:28:05;4.0;;;1.2;;
64214;SDS011;54441;52.110;5.252;2022-07-17T08:29:52;3.0;;;1.7;;
64214;SDS011;54441;52.110;5.252;2022-07-17T08:31:39;2.5;;;1.3;;
64214;SDS011;54441;52.110;5.252;2022-07-17T08:33:26;3.5;;;1.4;;
64214;SDS011;54441;52.110;5.252;2022-07-17T08:37:00;7.0;;;1.6;;
64214;SDS011;54441;52.110;5.252;2022-07-17T08:38:47;2.7;;;1.3;;
64214;SDS011;54441;52.110;5.252;2022-07-17T08:40:36;3.4;;;1.7;;
64214;SDS011;54441;52.110;5.252;2022-07-17T08:42:32;5.11;;;1.8;;
64214;SDS011;54441;52.110;5.252;2022-07-17T08:44:18;3.1;;;1.7;;
64214;SDS011;54441;52.110;5.252;2022-07-17T08:46:05;4.7;;;1.6;;
64214;SDS011;54441;52.110;5.252;2022-07-17T08:49:43;2.9;;;1.5;;
64214;SDS011;54441;52.110;5.252;2022-07-17T08:51:33;3.4;;;1.5;;
64214;SDS011;54441;52.110;5.252;2022-07-17T08:53:21;5.4;;;2.0;;
64214;SDS011;54441;52.110;5.252;2022-07-17T08:55:09;3.9;;;2.0;;
64214;SDS011;54441;52.110;5.252;2022-07-17T08:56:58;3.4;;;1.6;;
64214;SDS011;54441;52.110;5.252;2022-07-17T08:58:44;4.91;;;1.4;;
64214;SDS011;54441;52.110;5.252;2022-07-17T09:00:31;3.2;;;1.7;;
64214;SDS011;54441;52.110;5.252;2022-07-17T09:04:06;4.61;;;1.5;;
64214;SDS011;54441;52.110;5.252;2022-07-17T09:05:53;4.41;;;1.8;;
64214;SDS011;54441;52.110;5.252;2022-07-17T09:07:45;4.91;;;1.6;;
64214;SDS011;54441;52.110;5.252;2022-07-17T09:09:33;3.8;;;1.4;;
64214;SDS011;54441;52.110;5.252;2022-07-17T09:11:20;3.2;;;1.11;;
64214;SDS011;54441;52.110;5.252;2022-07-17T09:13:16;2.9;;;1.7;;
64214;SDS011;54441;52.110;5.252;2022-07-17T09:15:13;2.8;;;1.5;;
64214;SDS011;54441;52.110;5.252;2022-07-17T09:18:53;3.4;;;1.6;;
64214;SDS011;54441;52.110;5.252;2022-07-17T09:20:44;3.6;;;1.8;;
64214;SDS011;54441;52.110;5.252;2022-07-17T09:22:33;5.0;;;1.9;;
64214;SDS011;54441;52.110;5.252;2022-07-17T09:24:20;4.5;;;1.4;;
64214;SDS011;54441;52.110;5.252;2022-07-17T09:26:07;3.8;;;1.7;;
64214;SDS011;54441;52.110;5.252;2022-07-17T09:27:56;4.61;;;1.7;;
64214;SDS011;54441;52.110;5.252;2022-07-17T09:31:40;2.7;;;1.3;;
64214;SDS011;54441;52.110;5.252;2022-07-17T09:33:27;3.2;;;1.11;;
64214;SDS011;54441;52.110;5.252;2022-07-17T09:35:16;3.1;;;1.4;;
64214;SDS011;54441;52.110;5.252;2022-07-17T09:37:03;3.1;;;1.4;;
64214;SDS011;54441;52.110;5.252;2022-07-17T09:38:52;3.7;;;1.4;;
64214;SDS011;54441;52.110;5.252;2022-07-17T09:41:13;3.5;;;1.6;;
64214;SDS011;54441;52.110;5.252;2022-07-17T09:43:02;2.7;;;1.3;;
64214;SDS011;54441;52.110;5.252;2022-07-17T09:44:57;3.7;;;1.6;;
64214;SDS011;54441;52.110;5.252;2022-07-17T09:46:45;5.7;;;1.8;;
64214;SDS011;54441;52.110;5.252;2022-07-17T09:50:25;2.8;;;1.6;;
64214;SDS011;54441;52.110;5.252;2022-07-17T09:52:15;3.3;;;1.6;;
64214;SDS011;54441;52.110;5.252;2022-07-17T09:54:03;3.2;;;1.7;;
64214;SDS011;54441;52.110;5.252;2022-07-17T09:55:52;3.0;;;1.5;;
64214;SDS011;54441;52.110;5.252;2022-07-17T09:57:43;2.6;;;1.6;;
64214;SDS011;54441;52.110;5.252;2022-07-17T09:59:34;2.9;;;1.5;;
64214;SDS011;54441;52.110;5.252;2022-07-17T10:01:23;4.5;;;1.4;;
64214;SDS011;54441;52.110;5.252;2022-07-17T10:04:57;3.9;;;1.7;;
64214;SDS011;54441;52.110;5.252;2022-07-17T10:06:45;1.6;;;1.5;;
64214;SDS011;54441;52.110;5.252;2022-07-17T10:08:33;3.3;;;1.8;;
64214;SDS011;54441;52.110;5.252;2022-07-17T10:10:21;3.7;;;2.0;;
64214;SDS011;54441;52.110;5.252;2022-07-17T10:12:08;4.8;;;1.4;;
64214;SDS011;54441;52.110;5.252;2022-07-17T10:13:57;3.0;;;1.9;;
64214;SDS011;54441;52.110;5.252;2022-07-17T10:15:50;3.4;;;1.6;;
64214;SDS011;54441;52.110;5.252;2022-07-17T10:19:25;2.6;;;1.3;;
64214;SDS011;54441;52.110;5.252;2022-07-17T10:21:12;3.2;;;2.0;;
64214;SDS011;54441;52.110;5.252;2022-07-17T10:23:10;2.31;;;1.7;;
64214;SDS011;54441;52.110;5.252;2022-07-17T10:25:03;3.0;;;1.8;;
64214;SDS011;54441;52.110;5.252;2022-07-17T10:26:51;4.1;;;1.8;;
64214;SDS011;54441;52.110;5.252;2022-07-17T10:28:40;3.5;;;2.0;;
64214;SDS011;54441;52.110;5.252;2022-07-17T10:30:30;3.1;;;1.6;;
64214;SDS011;54441;52.110;5.252;2022-07-17T10:34:06;3.3;;;1.7;;
64214;SDS011;54441;52.110;5.252;2022-07-17T10:35:53;14.3;;;1.7;;
64214;SDS011;54441;52.110;5.252;2022-07-17T10:37:41;3.6;;;2.1;;
64214;SDS011;54441;52.110;5.252;2022-07-17T10:39:29;2.5;;;1.8;;
64214;SDS011;54441;52.110;5.252;2022-07-17T10:41:19;2.5;;;1.8;;
64214;SDS011;54441;52.110;5.252;2022-07-17T10:43:06;6.6;;;2.6;;
64214;SDS011;54441;52.110;5.252;2022-07-17T10:46:52;3.6;;;2.0;;
64214;SDS011;54441;52.110;5.252;2022-07-17T10:48:40;2.6;;;1.8;;
64214;SDS011;54441;52.110;5.252;2022-07-17T10:50:28;2.7;;;2.31;;
64214;SDS011;54441;52.110;5.252;2022-07-17T10:52:17;2.9;;;2.21;;
64214;SDS011;54441;52.110;5.252;2022-07-17T10:54:03;3.3;;;2.0;;
64214;SDS011;54441;52.110;5.252;2022-07-17T10:55:51;3.8;;;2.0;;
64214;SDS011;54441;52.110;5.252;2022-07-17T10:57:40;4.91;;;2.4;;
64214;SDS011;54441;52.110;5.252;2022-07-17T11:01:16;2.5;;;1.9;;
64214;SDS011;54441;52.110;5.252;2022-07-17T11:03:08;3.7;;;2.21;;
64214;SDS011;54441;52.110;5.252;2022-07-17T11:06:52;5.0;;;2.21;;
64214;SDS011;54441;52.110;5.252;2022-07-17T11:08:40;4.8;;;2.1;;
64214;SDS011;54441;52.110;5.252;2022-07-17T11:10:29;3.9;;;1.9;;
64214;SDS011;54441;52.110;5.252;2022-07-17T11:14:07;5.5;;;2.31;;
64214;SDS011;54441;52.110;5.252;2022-07-17T11:15:57;4.1;;;2.6;;
64214;SDS011;54441;52.110;5.252;2022-07-17T11:17:43;4.41;;;2.4;;
64214;SDS011;54441;52.110;5.252;2022-07-17T11:19:33;3.3;;;2.1;;
64214;SDS011;54441;52.110;5.252;2022-07-17T11:21:22;2.8;;;1.9;;
64214;SDS011;54441;52.110;5.252;2022-07-17T11:23:09;1.9;;;1.7;;
64214;SDS011;54441;52.110;5.252;2022-07-17T11:24:55;4.3;;;2.21;;
64214;SDS011;54441;52.110;5.252;2022-07-17T11:28:35;4.41;;;2.5;;
64214;SDS011;54441;52.110;5.252;2022-07-17T11:30:25;2.9;;;2.4;;
64214;SDS011;54441;52.110;5.252;2022-07-17T11:32:12;2.8;;;1.7;;
64214;SDS011;54441;52.110;5.252;2022-07-17T11:34:00;4.7;;;2.31;;
64214;SDS011;54441;52.110;5.252;2022-07-17T11:35:50;2.5;;;2.21;;
64214;SDS011;54441;52.110;5.252;2022-07-17T11:37:36;4.3;;;2.21;;
64214;SDS011;54441;52.110;5.252;2022-07-17T11:43:00;5.4;;;2.5;;
64214;SDS011;54441;52.110;5.252;2022-07-17T11:44:48;4.8;;;2.31;;
64214;SDS011;54441;52.110;5.252;2022-07-17T11:46:39;3.4;;;2.6;;
64214;SDS011;54441;52.110;5.252;2022-07-17T11:48:27;6.3;;;2.7;;
64214;SDS011;54441;52.110;5.252;2022-07-17T11:50:14;4.0;;;2.4;;
64214;SDS011;54441;52.110;5.252;2022-07-17T11:53:56;2.21;;;2.0;;
64214;SDS011;54441;52.110;5.252;2022-07-17T11:55:50;4.2;;;2.5;;
64214;SDS011;54441;52.110;5.252;2022-07-17T11:57:44;3.3;;;2.21;;
64214;SDS011;54441;52.110;5.252;2022-07-17T12:01:20;5.8;;;2.9;;
64214;SDS011;54441;52.110;5.252;2022-07-17T12:03:08;3.2;;;2.21;;
64214;SDS011;54441;52.110;5.252;2022-07-17T12:04:54;5.11;;;2.5;;
64214;SDS011;54441;52.110;5.252;2022-07-17T12:06:44;5.11;;;2.4;;
64214;SDS011;54441;52.110;5.252;2022-07-17T12:10:21;3.4;;;2.4;;
64214;SDS011;54441;52.110;5.252;2022-07-17T12:12:17;5.2;;;2.5;;
64214;SDS011;54441;52.110;5.252;2022-07-17T12:14:06;3.8;;;2.5;;
64214;SDS011;54441;52.110;5.252;2022-07-17T12:15:54;3.8;;;2.31;;
64214;SDS011;54441;52.110;5.252;2022-07-17T12:17:40;3.8;;;2.5;;
64214;SDS011;54441;52.110;5.252;2022-07-17T12:23:03;3.5;;;2.6;;
64214;SDS011;54441;52.110;5.252;2022-07-17T12:24:50;3.1;;;2.8;;
64214;SDS011;54441;52.110;5.252;2022-07-17T12:26:37;3.5;;;2.4;;
64214;SDS011;54441;52.110;5.252;2022-07-17T12:28:25;2.7;;;2.5;;
64214;SDS011;54441;52.110;5.252;2022-07-17T12:32:02;4.0;;;2.6;;
64214;SDS011;54441;52.110;5.252;2022-07-17T12:33:55;4.41;;;2.8;;
64214;SDS011;54441;52.110;5.252;2022-07-17T12:37:28;4.91;;;2.8;;
64214;SDS011;54441;52.110;5.252;2022-07-17T12:39:16;3.7;;;2.6;;
64214;SDS011;54441;52.110;5.252;2022-07-17T12:41:04;3.2;;;2.9;;
64214;SDS011;54441;52.110;5.252;2022-07-17T12:42:51;5.11;;;3.1;;
64214;SDS011;54441;52.110;5.252;2022-07-17T12:44:37;4.1;;;2.9;;
64214;SDS011;54441;52.110;5.252;2022-07-17T12:48:12;3.3;;;2.9;;
64214;SDS011;54441;52.110;5.252;2022-07-17T12:50:00;5.0;;;2.7;;
64214;SDS011;54441;52.110;5.252;2022-07-17T12:51:47;4.41;;;3.3;;
64214;SDS011;54441;52.110;5.252;2022-07-17T12:53:35;4.7;;;3.1;;
64214;SDS011;54441;52.110;5.252;2022-07-17T12:55:23;4.3;;;3.0;;
64214;SDS011;54441;52.110;5.252;2022-07-17T12:57:10;2.7;;;2.5;;
64214;SDS011;54441;52.110;5.252;2022-07-17T13:00:43;3.5;;;3.0;;
64214;SDS011;54441;52.110;5.252;2022-07-17T13:02:31;6.0;;;2.9;;
64214;SDS011;54441;52.110;5.252;2022-07-17T13:04:20;3.7;;;3.1;;
64214;SDS011;54441;52.110;5.252;2022-07-17T13:06:07;3.7;;;3.1;;
64214;SDS011;54441;52.110;5.252;2022-07-17T13:07:54;4.0;;;3.2;;
64214;SDS011;54441;52.110;5.252;2022-07-17T13:09:41;4.8;;;3.4;;
64214;SDS011;54441;52.110;5.252;2022-07-17T13:13:14;5.4;;;3.4;;